Time;durP1;ratioP1;P1;durP2;ratioP2;P2;SDS_P1;SDS_P2;PMS_P1;PMS_P2;Temp;Humidity;BMP_temperature;BMP_pressure;BME280_temperature;BME280_humidity;BME280_pressure;Samples;Min_cycle;Max_cycle;Signal;HPM_P1;HPM_P2
2023/07/26 00:02:21;;;;;;;4.70;0.77;;;;;;;16.11;76.60;100229.47;5054012;28;20449;-71
2023/07/26 00:04:47;;;;;;;5.50;1.00;;;;;;;16.04;76.23;100224.59;5053822;28;20819;-71
2023/07/26 00:07:14;;;;;;;4.93;0.93;;;;;;;16.00;75.82;100225.66;5053482;28;20517;-71
2023/07/26 00:09:42;;;;;;;11.73;0.97;;;;;;;15.95;76.40;100231.38;5054037;28;20529;-71
2023/07/26 00:12:09;;;;;;;4.50;0.73;;;;;;;15.97;77.55;100229.84;5053926;28;20460;-70
2023/07/26 00:14:35;;;;;;;4.30;0.63;;;;;;;15.87;76.35;100236.59;5054010;28;20499;-71
2023/07/26 00:17:02;;;;;;;4.20;0.73;;;;;;;15.86;76.75;100237.75;5053531;28;20443;-71
2023/07/26 00:19:29;;;;;;;4.77;0.87;;;;;;;15.83;77.00;100243.88;5053828;28;20529;-71
2023/07/26 00:21:55;;;;;;;4.60;0.97;;;;;;;15.74;76.91;100245.97;5053477;28;20882;-71
2023/07/26 00:24:22;;;;;;;4.43;0.80;;;;;;;15.67;76.91;100243.03;5053460;28;20452;-71
2023/07/26 00:26:50;;;;;;;4.50;0.90;;;;;;;15.67;76.88;100237.56;5053375;28;20537;-71
2023/07/26 00:29:17;;;;;;;4.80;1.10;;;;;;;15.70;76.94;100244.25;5053376;28;20520;-71
2023/07/26 00:31:43;;;;;;;4.20;0.60;;;;;;;15.63;77.59;100236.63;5053396;28;20528;-71
2023/07/26 00:34:10;;;;;;;4.23;0.53;;;;;;;15.56;78.00;100242.66;5053033;28;20446;-71
2023/07/26 00:36:36;;;;;;;4.70;0.70;;;;;;;15.50;79.27;100246.75;5053271;28;20815;-71
2023/07/26 00:39:04;;;;;;;4.80;1.00;;;;;;;15.42;78.87;100241.44;5053747;28;20533;-71
2023/07/26 00:41:30;;;;;;;4.73;0.87;;;;;;;15.43;79.30;100246.53;5052982;28;20930;-71
2023/07/26 00:43:58;;;;;;;4.40;0.70;;;;;;;15.40;78.83;100244.47;5053299;28;20438;-71
2023/07/26 00:46:25;;;;;;;6.00;1.20;;;;;;;15.33;79.06;100245.06;5053210;28;20566;-71
2023/07/26 00:48:52;;;;;;;4.50;0.90;;;;;;;15.25;79.08;100250.63;5053495;28;20522;-71
2023/07/26 00:51:21;;;;;;;5.23;0.80;;;;;;;15.18;79.15;100256.63;5053055;28;20488;-71
2023/07/26 00:53:48;;;;;;;4.93;0.80;;;;;;;15.08;79.53;100254.34;5052988;28;20450;-71
2023/07/26 00:56:15;;;;;;;4.40;0.90;;;;;;;15.02;80.43;100258.44;5053169;28;20458;-71
2023/07/26 00:58:42;;;;;;;4.77;0.90;;;;;;;14.95;80.35;100255.47;5053748;28;21002;-71
2023/07/26 01:01:10;;;;;;;5.30;0.83;;;;;;;14.95;81.20;100252.75;5057369;28;20474;-71
2023/07/26 01:03:37;;;;;;;4.57;0.90;;;;;;;14.94;81.62;100260.13;5057382;28;20521;-71
2023/07/26 01:06:12;;;;;;;6.10;0.90;;;;;;;14.82;81.86;100258.16;5056988;28;20527;-71
2023/07/26 01:08:55;;;;;;;4.50;1.00;;;;;;;14.87;81.49;100257.16;5057058;28;20831;-71
2023/07/26 01:11:28;;;;;;;4.27;0.70;;;;;;;14.81;81.83;100262.03;5057324;28;20426;-71
2023/07/26 01:14:00;;;;;;;4.20;0.60;;;;;;;14.79;82.28;100256.13;5056877;28;20774;-71
2023/07/26 01:16:28;;;;;;;4.57;0.80;;;;;;;14.78;82.48;100264.63;5056777;28;20461;-71
2023/07/26 01:18:55;;;;;;;5.13;1.13;;;;;;;14.75;82.69;100263.41;5057027;28;20472;-71
2023/07/26 01:21:22;;;;;;;6.80;0.70;;;;;;;14.71;83.42;100269.88;5056608;28;20954;-71
2023/07/26 01:23:50;;;;;;;4.50;0.73;;;;;;;14.65;83.71;100261.06;5056905;28;20842;-71
2023/07/26 01:26:16;;;;;;;5.20;1.10;;;;;;;14.53;85.81;100261.06;5056290;28;20886;-71
2023/07/26 01:28:43;;;;;;;4.97;1.10;;;;;;;14.45;84.42;100253.72;5056896;28;20573;-71
2023/07/26 01:31:12;;;;;;;8.00;1.00;;;;;;;14.48;84.47;100258.50;5056629;28;20529;-71
2023/07/26 01:33:39;;;;;;;4.50;0.63;;;;;;;14.45;84.46;100256.44;5056879;28;20446;-71
2023/07/26 01:36:06;;;;;;;7.07;1.00;;;;;;;14.41;84.55;100263.69;5056730;28;20501;-71
2023/07/26 01:38:34;;;;;;;4.90;0.90;;;;;;;14.34;84.51;100265.06;5057150;28;20444;-71
2023/07/26 01:41:03;;;;;;;4.70;1.00;;;;;;;14.30;86.06;100266.84;5056760;28;20434;-71
2023/07/26 01:43:29;;;;;;;5.23;0.80;;;;;;;14.32;86.14;100264.56;5056351;28;20533;-71
2023/07/26 01:45:56;;;;;;;5.33;1.23;;;;;;;14.34;85.75;100269.66;5055946;28;20549;-71
2023/07/26 01:48:23;;;;;;;4.90;1.00;;;;;;;14.31;85.38;100267.63;5056214;28;20481;-71
2023/07/26 01:50:50;;;;;;;4.50;0.73;;;;;;;14.25;85.27;100267.03;5056461;28;20438;-71
2023/07/26 01:53:16;;;;;;;4.77;0.93;;;;;;;14.16;85.74;100263.56;5056843;28;20910;-71
2023/07/26 01:55:43;;;;;;;11.73;1.23;;;;;;;14.07;86.78;100260.13;5056119;28;20458;-71
2023/07/26 01:58:11;;;;;;;4.40;0.70;;;;;;;14.05;87.16;100262.41;5055818;28;20446;-71
2023/07/26 02:00:37;;;;;;;5.30;1.03;;;;;;;14.09;86.52;100271.50;5055820;28;20910;-71
2023/07/26 02:03:04;;;;;;;4.60;0.90;;;;;;;13.97;86.98;100277.66;5056047;28;20537;-71
2023/07/26 02:05:31;;;;;;;7.90;1.30;;;;;;;13.98;86.44;100273.81;5071354;22;20553;-71
2023/07/26 02:07:57;;;;;;;6.30;1.00;;;;;;;13.94;86.97;100272.06;5075625;28;20512;-70
2023/07/26 02:10:24;;;;;;;6.13;1.07;;;;;;;13.93;87.21;100276.72;5075216;28;20444;-70
2023/07/26 02:12:51;;;;;;;5.67;1.00;;;;;;;13.90;87.53;100277.41;5075749;28;20520;-70
2023/07/26 02:15:20;;;;;;;5.20;1.10;;;;;;;13.88;87.20;100271.47;5075805;28;20552;-70
2023/07/26 02:17:46;;;;;;;4.60;0.83;;;;;;;13.89;88.32;100284.75;5075612;28;20821;-70
2023/07/26 02:20:13;;;;;;;5.57;1.23;;;;;;;13.94;88.54;100288.41;5076490;28;20468;-70
2023/07/26 02:22:39;;;;;;;4.63;0.83;;;;;;;13.97;87.82;100288.56;5075834;28;20480;-71
2023/07/26 02:25:07;;;;;;;4.90;1.10;;;;;;;13.96;87.93;100286.97;5075281;28;20462;-71
2023/07/26 02:27:33;;;;;;;5.40;1.10;;;;;;;13.96;88.04;100281.53;5075626;28;20441;-71
2023/07/26 02:30:00;;;;;;;4.47;0.90;;;;;;;13.94;87.34;100293.84;5075488;28;20479;-71
2023/07/26 02:32:29;;;;;;;5.47;1.00;;;;;;;13.90;88.00;100282.84;5075968;28;20472;-71
2023/07/26 02:34:55;;;;;;;4.87;1.20;;;;;;;13.85;88.28;100280.31;5075702;28;20473;-71
2023/07/26 02:37:22;;;;;;;4.40;0.80;;;;;;;13.81;88.18;100282.09;5075491;28;20480;-71
2023/07/26 02:39:50;;;;;;;4.70;0.90;;;;;;;13.75;89.23;100294.31;5075436;28;20472;-70
2023/07/26 02:42:17;;;;;;;5.00;1.10;;;;;;;13.74;88.82;100298.94;5075390;28;20456;-70
2023/07/26 02:44:43;;;;;;;8.93;1.43;;;;;;;13.75;89.47;100305.19;5075769;28;20472;-71
2023/07/26 02:47:10;;;;;;;7.10;0.77;;;;;;;13.73;88.99;100302.81;5075348;28;20769;-71
2023/07/26 02:49:38;;;;;;;4.83;1.00;;;;;;;13.75;89.06;100300.53;5075253;28;20563;-71
2023/07/26 02:52:05;;;;;;;5.77;1.30;;;;;;;13.69;88.97;100307.31;5075723;28;20484;-70
2023/07/26 02:54:32;;;;;;;5.90;1.20;;;;;;;13.63;89.22;100308.59;5074779;28;20437;-70
2023/07/26 02:56:59;;;;;;;5.33;0.93;;;;;;;13.63;89.56;100305.88;5075037;28;20445;-70
2023/07/26 02:59:25;;;;;;;4.70;1.07;;;;;;;13.65;89.26;100311.03;5074511;28;20853;-70
2023/07/26 03:01:52;;;;;;;5.23;1.33;;;;;;;13.53;90.14;100314.44;5074961;28;20494;-70
2023/07/26 03:04:19;;;;;;;5.13;1.10;;;;;;;13.55;90.04;100318.44;5075166;28;20451;-70
2023/07/26 03:06:47;;;;;;;6.60;0.97;;;;;;;13.54;89.60;100324.97;5074807;28;20473;-70
2023/07/26 03:09:13;;;;;;;4.80;0.93;;;;;;;13.42;90.42;100324.09;5074757;28;20529;-70
2023/07/26 03:11:40;;;;;;;4.70;1.00;;;;;;;13.44;90.80;100321.84;5075502;28;20441;-70
2023/07/26 03:14:06;;;;;;;4.90;1.03;;;;;;;13.44;91.26;100319.91;5075234;28;20532;-70
2023/07/26 03:16:33;;;;;;;4.90;1.07;;;;;;;13.41;91.15;100322.47;5074681;28;20469;-70
2023/07/26 03:19:00;;;;;;;4.60;0.93;;;;;;;13.41;91.53;100315.09;5074536;28;20571;-70
2023/07/26 03:21:26;;;;;;;4.50;0.80;;;;;;;13.40;91.92;100315.44;5074657;28;20532;-70
2023/07/26 03:23:54;;;;;;;5.27;1.30;;;;;;;13.37;92.74;100327.78;5074580;28;20441;-68
2023/07/26 03:26:21;;;;;;;5.87;1.30;;;;;;;13.35;93.08;100330.03;5074553;28;20453;-67
2023/07/26 03:28:47;;;;;;;4.67;1.00;;;;;;;13.35;92.39;100341.72;5074624;28;20937;-70
2023/07/26 03:31:14;;;;;;;5.70;1.23;;;;;;;13.31;93.60;100343.47;5074722;28;20441;-71
2023/07/26 03:33:41;;;;;;;5.50;1.37;;;;;;;13.30;93.20;100341.88;5074587;28;20574;-71
2023/07/26 03:36:07;;;;;;;4.97;1.03;;;;;;;13.34;93.96;100347.47;5074165;28;20457;-71
2023/07/26 03:38:34;;;;;;;5.50;1.30;;;;;;;13.35;93.16;100349.88;5074439;28;20485;-71
2023/07/26 03:41:02;;;;;;;6.23;1.23;;;;;;;13.33;93.52;100340.44;5073873;28;20548;-71
2023/07/26 03:43:29;;;;;;;4.50;1.00;;;;;;;13.33;93.06;100346.69;5074426;28;20484;-71
2023/07/26 03:45:55;;;;;;;6.53;1.40;;;;;;;13.34;93.17;100353.72;5073652;28;20544;-71
2023/07/26 03:48:22;;;;;;;5.80;1.13;;;;;;;13.35;93.92;100354.50;5074311;28;20437;-71
2023/07/26 03:50:48;;;;;;;5.37;1.30;;;;;;;13.39;94.13;100360.91;5073688;28;20957;-71
2023/07/26 03:53:15;;;;;;;7.47;1.00;;;;;;;13.42;94.42;100368.41;5073990;28;20585;-71
2023/07/26 03:55:42;;;;;;;4.80;1.00;;;;;;;13.47;94.26;100372.88;5074209;28;20487;-71
2023/07/26 03:58:10;;;;;;;6.07;1.20;;;;;;;13.47;94.28;100378.34;5073793;28;20539;-71
2023/07/26 04:00:36;;;;;;;7.23;1.50;;;;;;;13.50;95.30;100377.66;5073810;28;20485;-71
2023/07/26 04:03:03;;;;;;;5.27;1.23;;;;;;;13.59;95.45;100386.59;5073846;28;20438;-71
2023/07/26 04:05:30;;;;;;;5.50;1.00;;;;;;;13.66;94.11;100388.81;5073896;28;20465;-71
2023/07/26 04:07:56;;;;;;;5.43;1.53;;;;;;;13.65;93.30;100389.94;5073896;28;20508;-71
2023/07/26 04:10:23;;;;;;;5.57;1.30;;;;;;;13.63;93.22;100387.53;5074012;28;20437;-71
2023/07/26 04:12:50;;;;;;;5.03;1.20;;;;;;;13.70;93.71;100387.03;5073455;28;20937;-71
2023/07/26 04:15:18;;;;;;;4.77;1.20;;;;;;;13.65;93.28;100384.50;5073303;28;21022;-71
2023/07/26 04:17:44;;;;;;;6.00;1.17;;;;;;;13.71;92.82;100392.16;5073637;28;20441;-71
2023/07/26 04:20:12;;;;;;;5.40;1.47;;;;;;;13.70;93.40;100393.28;5073522;28;20568;-71
2023/07/26 04:22:38;;;;;;;5.30;1.60;;;;;;;13.74;92.82;100391.50;5073703;28;20444;-71
2023/07/26 04:25:06;;;;;;;15.37;1.20;;;;;;;13.77;92.30;100392.78;5073510;28;20453;-71
2023/07/26 04:27:33;;;;;;;5.13;1.20;;;;;;;13.78;92.32;100392.44;5073540;28;20536;-71
2023/07/26 04:29:59;;;;;;;4.43;0.87;;;;;;;13.79;92.56;100395.97;5073463;28;20520;-71
2023/07/26 04:32:27;;;;;;;4.97;1.20;;;;;;;13.77;93.39;100396.31;5074227;28;20438;-71
2023/07/26 04:34:54;;;;;;;5.43;1.43;;;;;;;13.83;93.19;100405.09;5072564;28;20454;-70
2023/07/26 04:37:22;;;;;;;5.93;1.63;;;;;;;13.80;93.28;100401.06;5073145;28;20929;-70
2023/07/26 04:39:49;;;;;;;5.87;1.30;;;;;;;13.76;93.02;100402.06;5073136;28;20485;-70
2023/07/26 04:42:15;;;;;;;6.40;1.20;;;;;;;13.84;92.58;100399.31;5073350;28;21036;-72
2023/07/26 04:44:42;;;;;;;5.67;1.23;;;;;;;13.91;91.71;100401.53;5073495;28;20544;-72
2023/07/26 04:47:09;;;;;;;5.13;1.27;;;;;;;13.96;91.78;100400.53;5073033;28;20479;-71
2023/07/26 04:49:37;;;;;;;5.00;1.13;;;;;;;13.97;90.85;100402.13;5073297;28;20448;-71
2023/07/26 04:52:04;;;;;;;4.40;0.83;;;;;;;13.97;90.96;100413.81;5073307;28;20520;-71
2023/07/26 04:54:31;;;;;;;5.07;1.10;;;;;;;13.89;91.94;100406.47;5073395;28;20873;-70
2023/07/26 04:56:57;;;;;;;5.60;1.30;;;;;;;13.94;93.38;100408.22;5073416;28;20520;-71
2023/07/26 04:59:24;;;;;;;4.90;1.43;;;;;;;14.01;94.35;100408.53;5073642;28;20491;-71
2023/07/26 05:01:50;;;;;;;5.27;1.20;;;;;;;14.09;93.92;100415.84;5073507;28;20502;-71
2023/07/26 05:04:17;;;;;;;4.63;0.97;;;;;;;14.21;93.55;100417.84;5072879;28;20442;-71
2023/07/26 05:06:45;;;;;;;4.90;1.20;;;;;;;14.22;92.05;100416.75;5072777;28;20487;-71
2023/07/26 05:09:12;;;;;;;4.80;1.17;;;;;;;14.17;92.15;100411.50;5073417;28;20438;-71
2023/07/26 05:11:38;;;;;;;5.13;1.40;;;;;;;14.18;92.65;100408.44;5073556;28;20520;-71
2023/07/26 05:14:05;;;;;;;7.03;1.10;;;;;;;14.20;93.06;100421.72;5073055;28;20952;-71
2023/07/26 05:16:31;;;;;;;4.87;1.23;;;;;;;14.20;92.45;100422.50;5072694;28;20968;-71
2023/07/26 05:18:59;;;;;;;4.53;1.10;;;;;;;14.22;93.23;100420.28;5073008;28;20853;-71
2023/07/26 05:21:25;;;;;;;4.60;1.03;;;;;;;14.30;93.62;100419.41;5073415;28;20882;-71
2023/07/26 05:23:53;;;;;;;6.20;1.73;;;;;;;14.36;92.26;100415.38;5073305;28;20437;-71
2023/07/26 05:26:20;;;;;;;5.40;1.37;;;;;;;14.43;92.77;100419.47;5073015;28;20905;-71
2023/07/26 05:28:47;;;;;;;5.57;0.97;;;;;;;14.50;92.52;100423.31;5073208;28;20441;-72
2023/07/26 05:31:13;;;;;;;6.37;1.10;;;;;;;14.60;92.46;100420.19;5072658;28;20858;-72
2023/07/26 05:33:40;;;;;;;5.33;1.10;;;;;;;14.66;92.07;100415.34;5072845;28;20448;-70
2023/07/26 05:36:07;;;;;;;5.03;1.10;;;;;;;14.71;92.28;100419.81;5072450;28;20552;-70
2023/07/26 05:38:33;;;;;;;11.43;1.50;;;;;;;14.77;91.56;100419.25;5073052;28;20940;-70
2023/07/26 05:41:06;;;;;;;5.77;1.43;;;;;;;14.84;90.84;100427.72;5072446;28;20517;-70
2023/07/26 05:43:33;;;;;;;5.10;1.30;;;;;;;14.91;90.58;100429.09;5073120;28;20429;-70
2023/07/26 05:46:01;;;;;;;4.70;1.10;;;;;;;15.04;90.23;100422.56;5073319;28;20487;-70
2023/07/26 05:48:28;;;;;;;4.60;1.00;;;;;;;15.08;90.30;100424.28;5076294;28;20438;-70
2023/07/26 05:50:55;;;;;;;5.23;1.17;;;;;;;15.18;88.78;100420.34;5075927;28;20996;-70
2023/07/26 05:53:21;;;;;;;4.73;1.10;;;;;;;15.24;87.41;100432.66;5076422;28;20488;-70
2023/07/26 05:55:48;;;;;;;7.03;1.90;;;;;;;15.24;87.11;100426.41;5076395;28;20464;-70
2023/07/26 05:58:16;;;;;;;5.30;1.20;;;;;;;15.27;87.55;100425.72;5076061;28;20448;-70
2023/07/26 06:00:42;;;;;;;5.13;1.00;;;;;;;15.33;87.93;100422.44;5058192;28;20484;-70
2023/07/26 06:03:09;;;;;;;5.43;1.30;;;;;;;15.45;87.80;100438.06;5076357;28;20445;-67
2023/07/26 06:05:36;;;;;;;5.20;1.43;;;;;;;15.51;88.17;100425.00;5076059;28;20464;-67
2023/07/26 06:08:03;;;;;;;5.40;1.10;;;;;;;15.50;88.19;100435.13;5076834;28;20517;-69
2023/07/26 06:10:29;;;;;;;4.57;1.10;;;;;;;15.56;87.50;100435.69;5076342;28;20529;-71
2023/07/26 06:12:56;;;;;;;5.57;1.10;;;;;;;15.68;86.99;100435.75;5075550;28;20576;-70
2023/07/26 06:15:24;;;;;;;6.20;0.97;;;;;;;15.76;86.26;100437.59;5076575;28;20461;-69
2023/07/26 06:17:50;;;;;;;6.03;1.43;;;;;;;15.83;86.17;100439.75;5076660;28;20453;-69
2023/07/26 06:20:17;;;;;;;6.87;1.10;;;;;;;15.93;86.46;100435.78;5076821;28;20472;-69
2023/07/26 06:22:44;;;;;;;5.33;1.00;;;;;;;16.02;86.17;100441.91;5077648;28;20469;-69
2023/07/26 06:25:10;;;;;;;4.73;1.00;;;;;;;16.02;83.51;100436.47;5075594;28;20466;-69
2023/07/26 06:27:37;;;;;;;4.60;0.90;;;;;;;15.86;84.59;100450.00;5076105;28;20449;-69
2023/07/26 06:30:04;;;;;;;4.60;0.90;;;;;;;15.86;84.71;100442.59;5076584;28;20446;-69
2023/07/26 06:32:32;;;;;;;4.90;0.93;;;;;;;15.83;85.73;100440.53;5076388;28;20481;-67
2023/07/26 06:34:58;;;;;;;6.70;1.27;;;;;;;15.93;84.92;100441.22;5075443;28;20544;-67
2023/07/26 06:37:25;;;;;;;6.10;1.20;;;;;;;15.91;84.63;100443.53;5075784;28;20451;-67
2023/07/26 06:39:52;;;;;;;4.50;0.80;;;;;;;15.94;85.16;100434.63;5075405;28;20486;-76
2023/07/26 06:42:18;;;;;;;4.70;0.73;;;;;;;16.03;85.44;100438.88;5078598;28;20480;-67
2023/07/26 06:44:45;;;;;;;4.83;1.20;;;;;;;16.16;85.03;100434.19;5076328;28;20523;-72
2023/07/26 06:47:11;;;;;;;5.30;1.20;;;;;;;16.26;84.90;100433.72;5076996;28;20957;-70
2023/07/26 06:49:40;;;;;;;5.00;1.23;;;;;;;16.39;83.40;100438.06;5079628;28;20483;-71
2023/07/26 06:52:06;;;;;;;4.70;0.80;;;;;;;16.50;81.82;100437.56;5079101;28;20445;-71
2023/07/26 06:54:33;;;;;;;4.77;0.80;;;;;;;16.55;80.99;100440.06;5079193;28;20477;-71
2023/07/26 06:57:00;;;;;;;5.23;1.40;;;;;;;16.59;81.23;100449.19;5075403;28;20453;-71
2023/07/26 06:59:26;;;;;;;4.77;0.90;;;;;;;16.66;81.77;100441.19;5076098;28;20503;-71
2023/07/26 07:01:53;;;;;;;4.30;0.70;;;;;;;16.83;81.76;100445.63;5075332;28;20451;-71
2023/07/26 07:04:19;;;;;;;5.57;1.20;;;;;;;17.06;79.71;100446.69;5075432;28;20469;-71
2023/07/26 07:06:48;;;;;;;5.03;1.20;;;;;;;17.20;79.16;100459.97;5075432;28;20457;-70
2023/07/26 07:09:15;;;;;;;5.43;1.13;;;;;;;17.25;79.23;100456.97;5075828;28;20536;-70
2023/07/26 07:11:42;;;;;;;4.67;0.97;;;;;;;17.32;78.55;100456.38;5075454;28;20441;-71
2023/07/26 07:14:08;;;;;;;4.50;0.87;;;;;;;17.35;77.48;100458.41;5076324;28;20764;-70
2023/07/26 07:16:35;;;;;;;4.50;0.83;;;;;;;17.43;77.18;100451.19;5076866;28;20531;-70
2023/07/26 07:19:02;;;;;;;4.60;1.00;;;;;;;17.48;76.20;100459.16;5077726;28;20920;-70
2023/07/26 07:21:28;;;;;;;4.53;0.70;;;;;;;17.42;75.59;100461.34;5077602;28;20481;-71
2023/07/26 07:23:57;;;;;;;4.30;0.70;;;;;;;17.33;76.55;100463.44;5075567;28;20528;-72
2023/07/26 07:26:24;;;;;;;4.87;1.00;;;;;;;17.23;76.72;100463.97;5076443;28;20473;-71
2023/07/26 07:28:50;;;;;;;5.03;0.80;;;;;;;17.21;76.88;100460.75;5076152;28;20467;-71
2023/07/26 07:31:17;;;;;;;4.60;1.00;;;;;;;17.23;76.42;100459.28;5075212;28;20898;-71
2023/07/26 07:33:44;;;;;;;4.80;1.00;;;;;;;17.26;76.79;100466.78;5075683;28;20437;-71
2023/07/26 07:36:15;;;;;;;4.30;0.90;;;;;;;17.27;76.65;100471.13;5075708;28;20548;-71
2023/07/26 07:38:41;;;;;;;5.80;0.73;;;;;;;17.27;76.34;100467.59;5075793;28;20433;-71
2023/07/26 07:41:09;;;;;;;4.33;0.70;;;;;;;17.25;77.42;100467.94;5074741;28;20948;-70
2023/07/26 07:43:36;;;;;;;6.50;0.93;;;;;;;17.35;77.28;100464.72;5075302;28;20448;-71
2023/07/26 07:46:03;;;;;;;10.93;1.13;;;;;;;17.38;76.40;100463.19;5074746;28;20465;-69
2023/07/26 07:48:29;;;;;;;4.70;0.93;;;;;;;17.43;75.01;100460.19;5074038;28;20524;-71
2023/07/26 07:50:56;;;;;;;4.50;0.73;;;;;;;17.44;75.27;100470.00;5074228;28;20524;-70
2023/07/26 07:53:23;;;;;;;5.30;1.03;;;;;;;17.44;75.03;100463.72;5073998;28;20799;-70
2023/07/26 07:55:50;;;;;;;6.00;1.00;;;;;;;17.49;76.10;100460.75;5074353;28;20465;-70
2023/07/26 07:58:18;;;;;;;4.20;0.70;;;;;;;17.48;74.45;100459.94;5074222;28;20448;-70
2023/07/26 08:00:44;;;;;;;4.20;0.63;;;;;;;17.46;74.34;100475.16;5073907;28;20516;-70
2023/07/26 08:03:11;;;;;;;4.87;0.97;;;;;;;17.42;74.48;100474.25;5074114;28;20527;-70
2023/07/26 08:05:38;;;;;;;4.43;0.83;;;;;;;17.42;75.41;100471.50;5085404;22;20491;-75
2023/07/26 08:08:06;;;;;;;4.60;1.03;;;;;;;17.36;74.43;100474.50;5034001;28;20437;-75
2023/07/26 08:10:32;;;;;;;5.60;1.03;;;;;;;17.52;75.30;100476.47;5033258;28;20538;-75
2023/07/26 08:12:59;;;;;;;4.50;0.77;;;;;;;17.69;74.97;100476.16;5034011;28;20439;-75
2023/07/26 08:15:32;;;;;;;5.13;0.83;;;;;;;17.75;74.44;100477.53;5033848;28;20498;-75
2023/07/26 08:17:59;;;;;;;4.57;0.60;;;;;;;17.95;72.73;100478.41;5033839;28;20879;-74
2023/07/26 08:20:25;;;;;;;4.20;0.70;;;;;;;17.99;71.08;100470.28;5033580;28;20894;-70
2023/07/26 08:22:52;;;;;;;5.47;1.33;;;;;;;18.09;71.07;100477.97;5033779;28;20447;-71
2023/07/26 08:25:18;;;;;;;4.53;0.83;;;;;;;18.16;71.78;100478.16;5033643;28;20459;-74
2023/07/26 08:27:45;;;;;;;4.17;0.60;;;;;;;18.26;71.24;100476.81;5033741;28;20443;-75
2023/07/26 08:30:12;;;;;;;4.30;0.70;;;;;;;18.40;70.56;100475.19;5033615;28;20481;-75
2023/07/26 08:32:40;;;;;;;4.50;0.83;;;;;;;18.50;69.89;100482.06;5033554;28;20443;-75
2023/07/26 08:35:07;;;;;;;4.80;0.80;;;;;;;18.49;68.25;100479.69;5033661;28;20495;-74
2023/07/26 08:37:34;;;;;;;4.70;0.90;;;;;;;18.44;66.77;100482.72;5033691;28;20522;-74
2023/07/26 08:40:00;;;;;;;4.30;0.83;;;;;;;18.48;67.92;100484.38;5033785;28;20530;-72
2023/07/26 08:42:27;;;;;;;4.50;0.80;;;;;;;18.56;65.83;100483.41;5033541;28;20443;-71
2023/07/26 08:44:54;;;;;;;4.50;0.80;;;;;;;18.56;67.54;100479.88;5033681;28;20498;-71
2023/07/26 08:47:23;;;;;;;4.50;0.83;;;;;;;18.61;68.72;100491.34;5033298;28;20439;-71
2023/07/26 08:49:51;;;;;;;4.47;0.70;;;;;;;18.82;66.49;100485.56;5033372;28;20530;-71
2023/07/26 08:52:18;;;;;;;5.07;0.97;;;;;;;18.88;64.69;100481.38;5033326;28;20486;-71
2023/07/26 08:54:47;;;;;;;4.57;0.93;;;;;;;19.04;64.88;100484.06;5033454;28;20496;-71
2023/07/26 08:57:13;;;;;;;4.90;1.10;;;;;;;18.94;66.49;100483.84;5033533;28;20431;-71
2023/07/26 08:59:40;;;;;;;4.90;0.90;;;;;;;18.96;62.50;100481.53;5033549;28;20872;-71
2023/07/26 09:02:09;;;;;;;4.43;0.73;;;;;;;19.02;63.47;100478.13;5033317;28;20565;-71
2023/07/26 09:04:36;;;;;;;4.57;0.77;;;;;;;19.11;61.46;100473.22;5033456;28;20498;-72
2023/07/26 09:07:06;;;;;;;6.47;1.00;;;;;;;19.10;59.60;100485.38;5033468;28;20461;-71
2023/07/26 09:09:33;;;;;;;4.97;1.10;;;;;;;19.01;61.17;100478.50;5033987;28;20508;-71
2023/07/26 09:12:01;;;;;;;4.83;0.83;;;;;;;18.99;61.18;100483.56;5033416;28;20447;-72
2023/07/26 09:14:28;;;;;;;4.90;0.67;;;;;;;19.09;61.72;100481.03;5033087;28;20526;-72
2023/07/26 09:16:56;;;;;;;4.40;0.70;;;;;;;19.18;61.57;100483.56;5033651;28;20526;-71
2023/07/26 09:19:29;;;;;;;4.60;0.80;;;;;;;19.22;61.33;100491.88;5033441;28;20450;-71
2023/07/26 09:21:57;;;;;;;5.10;0.73;;;;;;;19.24;62.83;100487.59;5036955;28;20471;-72
2023/07/26 09:24:33;;;;;;;5.27;0.67;;;;;;;19.30;62.52;100486.19;5037231;28;20439;-71
2023/07/26 09:27:04;;;;;;;4.60;0.63;;;;;;;19.28;63.58;100482.97;5037246;28;20434;-72
2023/07/26 09:29:31;;;;;;;4.40;0.90;;;;;;;19.32;65.18;100489.34;5038845;28;20430;-72
2023/07/26 09:31:57;;;;;;;4.63;0.90;;;;;;;19.34;63.78;100487.00;5037998;28;20529;-72
2023/07/26 09:34:24;;;;;;;4.20;0.57;;;;;;;19.37;63.98;100493.75;5054580;28;20466;-72
2023/07/26 09:36:52;;;;;;;4.60;1.03;;;;;;;19.55;62.50;100491.34;5057013;28;20446;-72
2023/07/26 09:39:19;;;;;;;4.50;0.70;;;;;;;19.60;62.20;100486.38;5056467;28;20953;-72
2023/07/26 09:41:49;;;;;;;4.40;0.70;;;;;;;19.71;59.83;100481.06;5056731;28;20581;-73
2023/07/26 09:44:17;;;;;;;4.27;0.63;;;;;;;19.73;61.27;100489.75;5056415;28;20981;-72
2023/07/26 09:46:48;;;;;;;4.70;1.00;;;;;;;19.67;58.66;100488.47;5056112;28;20466;-72
2023/07/26 09:49:16;;;;;;;4.57;0.77;;;;;;;19.52;58.38;100475.56;5056588;28;20512;-72
2023/07/26 09:51:43;;;;;;;4.57;0.70;;;;;;;19.54;59.34;100478.75;5057180;28;20438;-72
2023/07/26 09:54:11;;;;;;;4.70;0.70;;;;;;;19.76;60.21;100482.72;5056783;28;21001;-72
2023/07/26 09:56:39;;;;;;;4.30;0.70;;;;;;;19.83;57.59;100489.16;5055898;28;20462;-72
2023/07/26 09:59:10;;;;;;;4.70;0.87;;;;;;;19.94;58.14;100478.34;5055952;28;20933;-71
2023/07/26 10:01:41;;;;;;;6.93;1.23;;;;;;;20.04;57.57;100476.91;5056258;28;20474;-71
2023/07/26 10:04:12;;;;;;;4.53;0.77;;;;;;;19.99;57.59;100477.22;5056427;28;20772;-71
2023/07/26 10:06:42;;;;;;;5.30;0.90;;;;;;;19.99;60.84;100474.47;5055815;28;20477;-72
2023/07/26 10:09:13;;;;;;;5.20;1.00;;;;;;;20.06;57.85;100475.41;5056607;28;20449;-72
2023/07/26 10:11:42;;;;;;;5.97;1.07;;;;;;;20.10;58.55;100465.25;5056093;28;20437;-72
2023/07/26 10:14:11;;;;;;;8.20;0.93;;;;;;;20.19;57.27;100465.00;5056400;28;20529;-72
2023/07/26 10:16:38;;;;;;;5.30;0.87;;;;;;;20.20;58.47;100471.28;5055793;28;20989;-70
2023/07/26 10:19:05;;;;;;;4.97;0.90;;;;;;;20.24;57.77;100461.94;5055824;28;20542;-70
2023/07/26 10:21:32;;;;;;;4.57;0.80;;;;;;;20.40;57.97;100475.50;5055810;28;20577;-71
2023/07/26 10:24:02;;;;;;;4.50;0.70;;;;;;;20.53;58.17;100457.66;5055549;28;20446;-71
2023/07/26 10:26:32;;;;;;;5.30;0.80;;;;;;;20.60;54.58;100463.28;5055630;28;20545;-71
2023/07/26 10:28:59;;;;;;;4.37;0.77;;;;;;;20.72;54.46;100465.00;5055600;28;20453;-71
2023/07/26 10:31:28;;;;;;;5.00;1.00;;;;;;;20.76;52.83;100456.78;5054962;28;20520;-71
2023/07/26 10:33:55;;;;;;;5.27;0.70;;;;;;;20.70;53.42;100467.31;5055468;28;20839;-70
2023/07/26 10:36:22;;;;;;;4.20;0.70;;;;;;;20.59;55.54;100466.41;5055541;28;20512;-71
2023/07/26 10:38:50;;;;;;;5.40;1.00;;;;;;;20.52;55.57;100458.03;5055676;28;20442;-71
2023/07/26 10:41:25;;;;;;;6.00;1.40;;;;;;;20.68;56.00;100463.38;5055656;28;20493;-70
2023/07/26 10:44:02;;;;;;;5.27;0.83;;;;;;;20.83;53.55;100465.16;5055894;28;20448;-71
2023/07/26 10:46:31;;;;;;;4.67;0.87;;;;;;;20.86;54.32;100459.69;5055298;28;20458;-71
2023/07/26 10:48:58;;;;;;;6.50;0.77;;;;;;;20.65;55.03;100460.19;5055373;28;20504;-71
2023/07/26 10:51:28;;;;;;;4.40;1.00;;;;;;;20.53;56.14;100470.63;5055111;28;20525;-71
2023/07/26 10:53:55;;;;;;;4.20;0.70;;;;;;;20.43;55.15;100463.78;5055182;28;20449;-70
2023/07/26 10:56:25;;;;;;;4.23;0.70;;;;;;;20.54;56.45;100466.69;5055050;28;20473;-70
2023/07/26 10:58:54;;;;;;;4.37;0.70;;;;;;;20.68;55.23;100458.66;5055354;28;20529;-71
2023/07/26 11:01:33;;;;;;;4.30;0.70;;;;;;;20.80;55.26;100454.88;5055190;28;20486;-71
2023/07/26 11:04:00;;;;;;;4.50;0.80;;;;;;;20.64;54.36;100449.56;5055341;28;20533;-71
2023/07/26 11:06:49;;;;;;;4.60;1.10;;;;;;;20.47;56.11;100461.09;5054672;28;20853;-71
2023/07/26 11:09:23;;;;;;;4.50;0.90;;;;;;;20.37;55.83;100452.31;5055329;28;20445;-71
2023/07/26 11:11:55;;;;;;;5.23;0.90;;;;;;;20.34;55.17;100441.25;5055142;28;20461;-71
2023/07/26 11:14:23;;;;;;;4.30;0.80;;;;;;;20.49;56.71;100442.25;5054927;28;20431;-71
2023/07/26 11:16:51;;;;;;;4.77;0.77;;;;;;;20.82;56.44;100447.84;5054916;28;20438;-71
2023/07/26 11:19:17;;;;;;;4.80;1.03;;;;;;;21.24;55.62;100446.75;5054814;28;20823;-71
2023/07/26 11:21:44;;;;;;;5.53;0.90;;;;;;;21.72;56.45;100443.31;5055038;28;20488;-71
2023/07/26 11:24:11;;;;;;;4.40;0.80;;;;;;;22.33;54.60;100442.66;5054236;28;20484;-71
2023/07/26 11:26:41;;;;;;;4.33;0.70;;;;;;;22.82;48.18;100444.09;5054236;28;20494;-71